createdAt,value
2022-09-28T00:19:19.466Z,7.8
2022-09-28T00:29:21.254Z,7.8
2022-09-28T00:39:23.274Z,7.8
2022-09-28T00:49:25.290Z,7.7
2022-09-28T00:59:27.771Z,7.5
2022-09-28T01:09:29.467Z,7.4
2022-09-28T01:19:31.165Z,7.5
2022-09-28T01:29:33.600Z,7.4
2022-09-28T01:39:35.580Z,7.4
2022-09-28T01:49:37.297Z,7.3
2022-09-28T01:59:39.489Z,7.3
2022-09-28T02:09:41.389Z,7.4
2022-09-28T02:19:43.211Z,7.4
2022-09-28T02:29:45.081Z,7.4
2022-09-28T02:39:47.490Z,7.4
2022-09-28T02:49:49.874Z,7.4
2022-09-28T02:59:52.144Z,7.4
2022-09-28T03:09:54.189Z,7.4
2022-09-28T03:19:55.963Z,7.4
2022-09-28T03:29:57.685Z,7.4
2022-09-28T03:40:00.162Z,7.4
2022-09-28T03:50:02.283Z,7.5
2022-09-28T04:00:04.734Z,7.4
2022-09-28T04:10:06.790Z,7.3
2022-09-28T04:30:10.875Z,7.4
2022-09-28T04:40:12.650Z,7.4
2022-09-28T04:50:14.360Z,7.5
2022-09-28T05:00:16.216Z,7.5
2022-09-28T05:10:18.466Z,7.6
2022-09-28T05:20:20.700Z,7.5
2022-09-28T05:30:22.350Z,7.5
2022-09-28T05:40:24.169Z,7.4
2022-09-28T05:50:26.424Z,7.6
2022-09-28T06:20:32.571Z,7.7
2022-09-28T06:40:36.429Z,7.8
2022-09-28T06:50:38.216Z,7.9
2022-09-28T07:00:39.906Z,7.9
2022-09-28T07:10:41.846Z,8.1
2022-09-28T07:20:51.987Z,7.9
2022-09-28T07:30:46.735Z,8.1
2022-09-28T07:40:48.964Z,8.2
2022-09-28T07:50:51.262Z,8.4
2022-09-28T08:00:53.071Z,8.5
2022-09-28T08:20:57.083Z,8.4
2022-09-28T08:30:59.629Z,8.5
2022-09-28T08:41:02.253Z,8.6
2022-09-28T08:51:04.166Z,8.9
2022-09-28T09:11:08.784Z,9.1
2022-09-28T09:21:10.863Z,9.2
2022-09-28T09:31:13.010Z,9.6
2022-09-28T09:41:15.523Z,9.8
2022-09-28T09:51:17.352Z,9.6
2022-09-28T10:01:19.778Z,9.6
2022-09-28T10:11:22.023Z,9.6
2022-09-28T10:21:23.876Z,10
2022-09-28T10:31:26.009Z,10.1
2022-09-28T10:41:28.418Z,9.9
2022-09-28T10:51:31.000Z,10.6
2022-09-28T11:01:33.248Z,10.7
2022-09-28T11:11:35.532Z,10.6
2022-09-28T11:21:37.186Z,10.9
2022-09-28T11:31:39.270Z,11.4
2022-09-28T11:41:41.368Z,11
2022-09-28T11:51:43.521Z,11.6
2022-09-28T12:01:45.547Z,11.4
2022-09-28T12:21:49.758Z,12
2022-09-28T12:41:53.567Z,12.2
2022-09-28T12:51:55.641Z,12.2
2022-09-28T13:52:08.671Z,12
2022-09-28T14:02:10.605Z,12.3
2022-09-28T14:12:12.218Z,12.2
2022-09-28T14:22:14.538Z,12.1
2022-09-28T14:32:17.109Z,11.9
2022-09-28T14:42:18.818Z,11.8
2022-09-28T15:12:24.876Z,12.7
2022-09-28T15:22:27.323Z,12.7
2022-09-28T15:52:33.715Z,11.9
2022-09-28T16:12:37.974Z,11.8
2022-09-28T16:22:40.403Z,11.8
2022-09-28T16:32:42.987Z,11.8
2022-09-28T16:42:48.792Z,11.5
2022-09-28T16:52:46.799Z,11.4
2022-09-28T17:02:48.751Z,11.2
2022-09-28T17:12:51.225Z,11.1
2022-09-28T17:22:52.913Z,10.9
2022-09-28T17:32:55.281Z,10.9
2022-09-28T17:42:57.432Z,10.9
2022-09-28T17:52:59.311Z,10.7
2022-09-28T18:03:01.046Z,10.5
2022-09-28T18:13:02.778Z,10.5
2022-09-28T18:23:04.689Z,10.4
2022-09-28T18:33:06.388Z,10.1
2022-09-28T18:43:08.261Z,9.9
2022-09-28T18:53:10.340Z,9.7
2022-09-28T19:03:12.315Z,9.6
2022-09-28T19:13:14.650Z,9.5
2022-09-28T19:23:16.842Z,9.4
2022-09-28T19:33:18.735Z,9.2
2022-09-28T19:43:21.038Z,9
2022-09-28T19:53:23.197Z,8.8
2022-09-28T20:03:25.321Z,8.7
2022-09-28T20:13:27.695Z,8.5
2022-09-28T20:23:29.666Z,8.4
2022-09-28T20:33:31.833Z,8.3
2022-09-28T20:43:34.064Z,8.4
2022-09-28T21:03:38.360Z,8.5
2022-09-28T21:13:40.654Z,8.6
2022-09-28T21:23:42.505Z,8.7
2022-09-28T21:33:44.846Z,8.7
2022-09-28T21:43:47.025Z,8.7
2022-09-28T21:53:49.529Z,8.6
2022-09-28T22:03:51.726Z,8.6
2022-09-28T22:23:55.917Z,8.4
2022-09-28T22:33:57.719Z,8.2
2022-09-28T22:43:59.806Z,7.9
2022-09-28T22:54:01.549Z,7.4
2022-09-28T22:54:45.314Z,7.4
2022-09-28T23:14:12.707Z,7.1
2022-09-28T23:24:14.580Z,6.9
2022-09-28T23:34:16.567Z,6.8
2022-09-28T23:44:18.840Z,6.7
2022-09-28T23:54:20.627Z,6.6
